sensor_id;sensor_type;location;lat;lon;timestamp;pressure;altitude;pressure_sealevel;temperature;humidity
34237;BME280;20501;45.956;13.632;2023-03-19T00:02:02;100921.78;;;11.10;48.90
34237;BME280;20501;45.956;13.632;2023-03-19T00:04:27;100919.69;;;11.23;51.53
34237;BME280;20501;45.956;13.632;2023-03-19T00:06:53;100910.19;;;10.34;51.19
34237;BME280;20501;45.956;13.632;2023-03-19T00:09:20;100908.97;;;9.62;52.32
34237;BME280;20501;45.956;13.632;2023-03-19T00:11:46;100916.84;;;10.63;53.99
34237;BME280;20501;45.956;13.632;2023-03-19T00:14:11;100916.72;;;10.95;49.43
34237;BME280;20501;45.956;13.632;2023-03-19T00:16:37;100922.16;;;11.36;51.55
34237;BME280;20501;45.956;13.632;2023-03-19T00:19:03;100918.59;;;11.86;49.72
34237;BME280;20501;45.956;13.632;2023-03-19T00:21:29;100926.78;;;11.55;48.77
34237;BME280;20501;45.956;13.632;2023-03-19T00:23:55;100923.28;;;11.94;49.32
34237;BME280;20501;45.956;13.632;2023-03-19T00:26:31;100929.41;;;11.76;50.41
34237;BME280;20501;45.956;13.632;2023-03-19T00:28:57;100935.22;;;11.72;50.47
34237;BME280;20501;45.956;13.632;2023-03-19T00:31:24;100928.13;;;11.90;48.69
34237;BME280;20501;45.956;13.632;2023-03-19T00:33:50;100925.75;;;12.17;49.60
34237;BME280;20501;45.956;13.632;2023-03-19T00:36:16;100922.44;;;11.93;50.25
34237;BME280;20501;45.956;13.632;2023-03-19T00:38:43;100925.31;;;12.21;49.49
34237;BME280;20501;45.956;13.632;2023-03-19T00:41:09;100921.91;;;12.59;48.54
34237;BME280;20501;45.956;13.632;2023-03-19T00:43:35;100925.75;;;11.46;50.42
34237;BME280;20501;45.956;13.632;2023-03-19T00:46:01;100919.47;;;11.97;49.63
34237;BME280;20501;45.956;13.632;2023-03-19T00:48:27;100917.44;;;11.89;50.11
34237;BME280;20501;45.956;13.632;2023-03-19T00:50:53;100905.19;;;12.53;48.71
34237;BME280;20501;45.956;13.632;2023-03-19T00:53:18;100909.53;;;12.27;48.97
34237;BME280;20501;45.956;13.632;2023-03-19T00:55:44;100915.72;;;11.68;46.80
34237;BME280;20501;45.956;13.632;2023-03-19T00:58:10;100919.47;;;10.53;50.26
34237;BME280;20501;45.956;13.632;2023-03-19T01:00:37;100917.13;;;9.17;56.15
34237;BME280;20501;45.956;13.632;2023-03-19T01:03:03;100921.59;;;10.05;54.83
34237;BME280;20501;45.956;13.632;2023-03-19T01:05:30;100916.75;;;10.74;53.19
34237;BME280;20501;45.956;13.632;2023-03-19T01:07:55;100912.97;;;11.58;50.26
34237;BME280;20501;45.956;13.632;2023-03-19T01:10:22;100914.09;;;11.56;49.93
34237;BME280;20501;45.956;13.632;2023-03-19T01:12:48;100909.41;;;11.68;47.08
34237;BME280;20501;45.956;13.632;2023-03-19T01:15:14;100906.19;;;11.93;49.82
34237;BME280;20501;45.956;13.632;2023-03-19T01:17:40;100905.22;;;12.44;48.75
34237;BME280;20501;45.956;13.632;2023-03-19T01:20:08;100902.03;;;12.58;48.21
34237;BME280;20501;45.956;13.632;2023-03-19T01:22:38;100895.66;;;12.49;48.46
34237;BME280;20501;45.956;13.632;2023-03-19T01:25:06;100892.84;;;12.31;48.66
34237;BME280;20501;45.956;13.632;2023-03-19T01:27:33;100897.97;;;12.25;48.90
34237;BME280;20501;45.956;13.632;2023-03-19T01:29:59;100896.34;;;11.92;49.47
34237;BME280;20501;45.956;13.632;2023-03-19T01:32:25;100909.31;;;11.28;47.55
34237;BME280;20501;45.956;13.632;2023-03-19T01:34:50;100909.84;;;11.53;50.82
34237;BME280;20501;45.956;13.632;2023-03-19T01:37:17;100903.09;;;10.01;51.39
34237;BME280;20501;45.956;13.632;2023-03-19T01:39:43;100912.94;;;9.12;55.59
34237;BME280;20501;45.956;13.632;2023-03-19T01:42:09;100911.97;;;8.91;56.91
34237;BME280;20501;45.956;13.632;2023-03-19T01:44:37;100910.88;;;10.69;53.72
34237;BME280;20501;45.956;13.632;2023-03-19T01:47:14;100906.06;;;11.35;51.28
34237;BME280;20501;45.956;13.632;2023-03-19T01:49:41;100919.00;;;11.00;48.64
34237;BME280;20501;45.956;13.632;2023-03-19T01:52:10;100913.50;;;12.22;48.75
34237;BME280;20501;45.956;13.632;2023-03-19T01:54:37;100919.47;;;11.97;48.95
34237;BME280;20501;45.956;13.632;2023-03-19T01:57:07;100916.63;;;11.07;51.46
34237;BME280;20501;45.956;13.632;2023-03-19T01:59:39;100910.81;;;12.13;49.03
34237;BME280;20501;45.956;13.632;2023-03-19T02:02:21;100909.34;;;11.99;47.75
34237;BME280;20501;45.956;13.632;2023-03-19T02:04:51;100912.44;;;9.07;54.10
34237;BME280;20501;45.956;13.632;2023-03-19T02:07:18;100918.19;;;8.91;55.07
34237;BME280;20501;45.956;13.632;2023-03-19T02:09:44;100916.47;;;10.02;55.60
34237;BME280;20501;45.956;13.632;2023-03-19T02:12:11;100905.44;;;9.94;53.81
34237;BME280;20501;45.956;13.632;2023-03-19T02:14:37;100905.34;;;10.71;52.99
34237;BME280;20501;45.956;13.632;2023-03-19T02:17:02;100902.41;;;11.45;51.08
34237;BME280;20501;45.956;13.632;2023-03-19T02:22:11;100904.72;;;9.25;54.30
34237;BME280;20501;45.956;13.632;2023-03-19T02:24:43;100902.09;;;8.56;54.60
34237;BME280;20501;45.956;13.632;2023-03-19T02:27:10;100904.97;;;7.57;59.64
34237;BME280;20501;45.956;13.632;2023-03-19T02:29:36;100902.94;;;9.70;55.03
34237;BME280;20501;45.956;13.632;2023-03-19T02:32:02;100896.88;;;10.21;55.07
34237;BME280;20501;45.956;13.632;2023-03-19T02:34:33;100896.06;;;10.63;50.45
34237;BME280;20501;45.956;13.632;2023-03-19T02:37:13;100904.34;;;9.41;54.74
34237;BME280;20501;45.956;13.632;2023-03-19T02:42:16;100905.13;;;7.80;58.00
34237;BME280;20501;45.956;13.632;2023-03-19T02:44:42;100902.13;;;9.58;56.14
34237;BME280;20501;45.956;13.632;2023-03-19T02:47:08;100904.38;;;9.07;57.38
34237;BME280;20501;45.956;13.632;2023-03-19T02:49:33;100899.84;;;9.08;54.80
34237;BME280;20501;45.956;13.632;2023-03-19T02:52:00;100895.38;;;9.96;55.26
34237;BME280;20501;45.956;13.632;2023-03-19T02:54:26;100891.28;;;8.44;54.99
34237;BME280;20501;45.956;13.632;2023-03-19T02:56:51;100895.69;;;9.82;54.41
34237;BME280;20501;45.956;13.632;2023-03-19T02:59:17;100884.19;;;10.33;53.82
34237;BME280;20501;45.956;13.632;2023-03-19T03:01:43;100889.06;;;10.40;51.00
34237;BME280;20501;45.956;13.632;2023-03-19T03:04:08;100887.91;;;10.21;51.57
34237;BME280;20501;45.956;13.632;2023-03-19T03:06:34;100887.88;;;11.46;51.08
34237;BME280;20501;45.956;13.632;2023-03-19T03:09:00;100884.16;;;12.08;49.33
34237;BME280;20501;45.956;13.632;2023-03-19T03:11:25;100890.50;;;11.77;49.29
34237;BME280;20501;45.956;13.632;2023-03-19T03:13:51;100883.97;;;11.90;48.16
34237;BME280;20501;45.956;13.632;2023-03-19T03:16:17;100879.03;;;12.05;49.25
34237;BME280;20501;45.956;13.632;2023-03-19T03:18:42;100884.81;;;11.90;49.55
34237;BME280;20501;45.956;13.632;2023-03-19T03:21:07;100881.44;;;11.98;49.20
34237;BME280;20501;45.956;13.632;2023-03-19T03:23:34;100882.59;;;12.25;48.56
34237;BME280;20501;45.956;13.632;2023-03-19T03:26:00;100888.53;;;11.80;49.41
34237;BME280;20501;45.956;13.632;2023-03-19T03:28:26;100893.78;;;11.81;49.19
34237;BME280;20501;45.956;13.632;2023-03-19T03:30:58;100895.94;;;11.97;49.45
34237;BME280;20501;45.956;13.632;2023-03-19T03:33:24;100901.09;;;10.99;50.83
34237;BME280;20501;45.956;13.632;2023-03-19T03:35:49;100893.19;;;11.68;48.46
34237;BME280;20501;45.956;13.632;2023-03-19T03:38:15;100901.22;;;11.28;50.20
34237;BME280;20501;45.956;13.632;2023-03-19T03:40:40;100898.25;;;12.02;49.27
34237;BME280;20501;45.956;13.632;2023-03-19T03:43:06;100902.66;;;11.93;49.20
34237;BME280;20501;45.956;13.632;2023-03-19T03:45:32;100912.13;;;11.68;49.65
34237;BME280;20501;45.956;13.632;2023-03-19T03:47:57;100905.00;;;11.57;47.81
34237;BME280;20501;45.956;13.632;2023-03-19T03:50:22;100899.88;;;11.73;49.88
34237;BME280;20501;45.956;13.632;2023-03-19T03:52:48;100897.91;;;11.75;49.33
34237;BME280;20501;45.956;13.632;2023-03-19T03:55:13;100895.34;;;10.92;51.74
34237;BME280;20501;45.956;13.632;2023-03-19T03:57:39;100888.78;;;11.16;51.13
34237;BME280;20501;45.956;13.632;2023-03-19T04:00:06;100887.63;;;11.59;49.86
34237;BME280;20501;45.956;13.632;2023-03-19T04:02:31;100880.28;;;11.91;49.56
34237;BME280;20501;45.956;13.632;2023-03-19T04:04:57;100882.97;;;11.91;49.33
34237;BME280;20501;45.956;13.632;2023-03-19T04:07:22;100883.53;;;11.85;49.09
34237;BME280;20501;45.956;13.632;2023-03-19T04:09:48;100890.84;;;12.14;48.48
34237;BME280;20501;45.956;13.632;2023-03-19T04:12:15;100901.38;;;10.75;47.58
34237;BME280;20501;45.956;13.632;2023-03-19T04:14:40;100895.00;;;11.57;50.13
34237;BME280;20501;45.956;13.632;2023-03-19T04:17:05;100895.97;;;10.96;51.24
34237;BME280;20501;45.956;13.632;2023-03-19T04:19:31;100891.31;;;10.77;52.11
34237;BME280;20501;45.956;13.632;2023-03-19T04:21:57;100901.38;;;10.32;51.56
34237;BME280;20501;45.956;13.632;2023-03-19T04:24:24;100902.28;;;11.57;50.73
34237;BME280;20501;45.956;13.632;2023-03-19T04:26:50;100898.75;;;11.66;50.04
34237;BME280;20501;45.956;13.632;2023-03-19T04:29:16;100904.09;;;10.53;52.93
34237;BME280;20501;45.956;13.632;2023-03-19T04:31:43;100904.34;;;8.37;56.04
34237;BME280;20501;45.956;13.632;2023-03-19T04:34:09;100908.41;;;8.67;55.80
34237;BME280;20501;45.956;13.632;2023-03-19T04:36:36;100905.16;;;10.62;52.63
34237;BME280;20501;45.956;13.632;2023-03-19T04:39:01;100908.69;;;9.76;52.00
34237;BME280;20501;45.956;13.632;2023-03-19T04:41:26;100917.19;;;7.74;57.26
34237;BME280;20501;45.956;13.632;2023-03-19T04:43:52;100911.31;;;9.99;54.13
34237;BME280;20501;45.956;13.632;2023-03-19T04:46:17;100914.00;;;8.64;54.43
34237;BME280;20501;45.956;13.632;2023-03-19T04:48:43;100907.41;;;8.69;55.77
34237;BME280;20501;45.956;13.632;2023-03-19T04:51:09;100908.91;;;10.50;53.72
34237;BME280;20501;45.956;13.632;2023-03-19T04:53:36;100919.88;;;11.01;52.19
34237;BME280;20501;45.956;13.632;2023-03-19T04:56:02;100908.56;;;11.17;51.17
34237;BME280;20501;45.956;13.632;2023-03-19T04:58:27;100916.13;;;11.73;49.81
34237;BME280;20501;45.956;13.632;2023-03-19T05:00:53;100910.63;;;12.04;49.03
34237;BME280;20501;45.956;13.632;2023-03-19T05:03:19;100909.59;;;11.86;49.38
34237;BME280;20501;45.956;13.632;2023-03-19T05:05:45;100920.34;;;12.07;49.03
34237;BME280;20501;45.956;13.632;2023-03-19T05:08:11;100925.31;;;11.92;49.70
34237;BME280;20501;45.956;13.632;2023-03-19T05:10:38;100927.63;;;12.16;48.83
34237;BME280;20501;45.956;13.632;2023-03-19T05:13:04;100932.50;;;10.90;50.17
34237;BME280;20501;45.956;13.632;2023-03-19T05:15:31;100940.91;;;11.59;50.79
34237;BME280;20501;45.956;13.632;2023-03-19T05:17:56;100936.16;;;11.10;50.03
34237;BME280;20501;45.956;13.632;2023-03-19T05:20:22;100923.66;;;10.13;51.52
34237;BME280;20501;45.956;13.632;2023-03-19T05:22:47;100932.53;;;9.71;55.24
34237;BME280;20501;45.956;13.632;2023-03-19T05:25:13;100930.38;;;8.26;56.58
34237;BME280;20501;45.956;13.632;2023-03-19T05:27:39;100929.97;;;9.13;57.45
34237;BME280;20501;45.956;13.632;2023-03-19T05:30:06;100932.41;;;7.49;59.43
34237;BME280;20501;45.956;13.632;2023-03-19T05:32:31;100939.03;;;7.69;58.14
34237;BME280;20501;45.956;13.632;2023-03-19T05:34:58;100951.94;;;7.27;59.45
34237;BME280;20501;45.956;13.632;2023-03-19T05:37:24;100948.09;;;8.88;54.94
34237;BME280;20501;45.956;13.632;2023-03-19T05:39:50;100957.19;;;10.11;54.48
34237;BME280;20501;45.956;13.632;2023-03-19T05:42:16;100961.59;;;11.08;52.08
34237;BME280;20501;45.956;13.632;2023-03-19T05:44:41;100963.88;;;11.84;50.18
34237;BME280;20501;45.956;13.632;2023-03-19T05:47:07;100970.88;;;11.46;49.23
34237;BME280;20501;45.956;13.632;2023-03-19T05:49:34;100965.13;;;10.77;52.02
34237;BME280;20501;45.956;13.632;2023-03-19T05:51:59;100968.09;;;10.74;52.84
34237;BME280;20501;45.956;13.632;2023-03-19T05:54:25;100969.28;;;11.34;51.32
34237;BME280;20501;45.956;13.632;2023-03-19T05:56:51;100972.16;;;11.92;50.11
34237;BME280;20501;45.956;13.632;2023-03-19T05:59:16;100969.25;;;12.15;49.53
34237;BME280;20501;45.956;13.632;2023-03-19T06:01:42;100969.97;;;12.17;49.25
34237;BME280;20501;45.956;13.632;2023-03-19T06:04:08;100975.22;;;11.99;49.51
34237;BME280;20501;45.956;13.632;2023-03-19T06:06:33;100969.84;;;11.68;48.94
34237;BME280;20501;45.956;13.632;2023-03-19T06:08:59;100979.97;;;11.76;49.93
34237;BME280;20501;45.956;13.632;2023-03-19T06:11:24;100981.81;;;11.66;50.92
34237;BME280;20501;45.956;13.632;2023-03-19T06:13:50;100983.22;;;12.11;49.42
34237;BME280;20501;45.956;13.632;2023-03-19T06:16:15;100984.06;;;12.21;49.05
34237;BME280;20501;45.956;13.632;2023-03-19T06:18:41;100987.78;;;12.20;48.83
34237;BME280;20501;45.956;13.632;2023-03-19T06:21:07;100988.78;;;12.29;48.90
34237;BME280;20501;45.956;13.632;2023-03-19T06:23:32;101000.59;;;12.18;49.03
34237;BME280;20501;45.956;13.632;2023-03-19T06:25:58;100992.56;;;11.97;49.73
34237;BME280;20501;45.956;13.632;2023-03-19T06:28:23;100992.63;;;12.36;48.67
34237;BME280;20501;45.956;13.632;2023-03-19T06:30:48;100995.19;;;12.37;48.67
34237;BME280;20501;45.956;13.632;2023-03-19T06:33:14;100985.47;;;12.05;49.22
34237;BME280;20501;45.956;13.632;2023-03-19T06:35:40;100995.34;;;11.75;48.33
34237;BME280;20501;45.956;13.632;2023-03-19T06:38:05;101003.34;;;11.46;50.77
34237;BME280;20501;45.956;13.632;2023-03-19T06:40:32;100999.56;;;10.31;51.38
34237;BME280;20501;45.956;13.632;2023-03-19T06:42:57;100998.88;;;10.83;51.11
34237;BME280;20501;45.956;13.632;2023-03-19T06:45:22;101009.94;;;11.22;51.33
34237;BME280;20501;45.956;13.632;2023-03-19T06:47:48;101017.28;;;11.41;50.95
34237;BME280;20501;45.956;13.632;2023-03-19T06:50:15;101027.75;;;11.97;50.24
34237;BME280;20501;45.956;13.632;2023-03-19T06:52:41;101035.56;;;10.64;53.28
34237;BME280;20501;45.956;13.632;2023-03-19T06:55:07;101037.88;;;9.00;54.64
34237;BME280;20501;45.956;13.632;2023-03-19T06:57:33;101033.25;;;8.42;57.16
34237;BME280;20501;45.956;13.632;2023-03-19T06:59:59;101031.63;;;8.15;57.80
34237;BME280;20501;45.956;13.632;2023-03-19T07:02:24;101025.06;;;9.15;57.96
34237;BME280;20501;45.956;13.632;2023-03-19T07:04:50;101031.78;;;10.56;53.93
34237;BME280;20501;45.956;13.632;2023-03-19T07:07:16;101031.94;;;11.70;50.77
34237;BME280;20501;45.956;13.632;2023-03-19T07:09:42;101036.44;;;11.59;50.86
34237;BME280;20501;45.956;13.632;2023-03-19T07:12:07;101032.16;;;11.26;49.61
34237;BME280;20501;45.956;13.632;2023-03-19T07:14:33;101034.69;;;11.80;50.35
34237;BME280;20501;45.956;13.632;2023-03-19T07:16:58;101030.97;;;12.21;49.48
34237;BME280;20501;45.956;13.632;2023-03-19T07:19:23;101038.81;;;12.25;48.98
34237;BME280;20501;45.956;13.632;2023-03-19T07:21:49;101042.13;;;11.87;49.35
34237;BME280;20501;45.956;13.632;2023-03-19T07:24:15;101051.94;;;12.19;49.06
34237;BME280;20501;45.956;13.632;2023-03-19T07:26:40;101058.91;;;12.32;48.79
34237;BME280;20501;45.956;13.632;2023-03-19T07:29:06;101068.22;;;12.39;49.02
34237;BME280;20501;45.956;13.632;2023-03-19T07:31:32;101070.78;;;12.41;49.02
34237;BME280;20501;45.956;13.632;2023-03-19T07:33:57;101057.81;;;12.64;48.24
34237;BME280;20501;45.956;13.632;2023-03-19T07:36:23;101066.81;;;10.78;51.20
34237;BME280;20501;45.956;13.632;2023-03-19T07:38:48;101059.53;;;11.95;50.36
34237;BME280;20501;45.956;13.632;2023-03-19T07:41:14;101057.00;;;11.41;51.32
34237;BME280;20501;45.956;13.632;2023-03-19T07:43:39;101058.59;;;10.47;52.01
34237;BME280;20501;45.956;13.632;2023-03-19T07:46:05;101056.31;;;10.64;52.63
34237;BME280;20501;45.956;13.632;2023-03-19T07:48:30;101053.53;;;9.99;52.74
34237;BME280;20501;45.956;13.632;2023-03-19T07:50:56;101061.44;;;10.46;53.93
34237;BME280;20501;45.956;13.632;2023-03-19T07:53:21;101064.31;;;11.50;51.81
34237;BME280;20501;45.956;13.632;2023-03-19T07:55:47;101064.69;;;9.94;52.76
34237;BME280;20501;45.956;13.632;2023-03-19T07:58:12;101064.28;;;10.21;53.23
34237;BME280;20501;45.956;13.632;2023-03-19T08:00:38;101068.59;;;11.01;51.21
34237;BME280;20501;45.956;13.632;2023-03-19T08:03:04;101066.38;;;10.18;53.47
34237;BME280;20501;45.956;13.632;2023-03-19T08:05:30;101072.66;;;11.16;51.26
34237;BME280;20501;45.956;13.632;2023-03-19T08:07:55;101072.38;;;10.10;53.99
34237;BME280;20501;45.956;13.632;2023-03-19T08:10:21;101067.94;;;10.32;52.90
34237;BME280;20501;45.956;13.632;2023-03-19T08:12:46;101066.19;;;11.28;52.94
34237;BME280;20501;45.956;13.632;2023-03-19T08:15:13;101070.47;;;12.34;49.61
34237;BME280;20501;45.956;13.632;2023-03-19T08:17:38;101063.06;;;12.36;49.05
34237;BME280;20501;45.956;13.632;2023-03-19T08:20:06;101068.53;;;12.65;48.10
34237;BME280;20501;45.956;13.632;2023-03-19T08:22:34;101063.97;;;12.66;48.90
34237;BME280;20501;45.956;13.632;2023-03-19T08:25:00;101061.69;;;12.91;48.46
34237;BME280;20501;45.956;13.632;2023-03-19T08:27:25;101071.50;;;13.01;48.07
34237;BME280;20501;45.956;13.632;2023-03-19T08:29:52;101071.09;;;12.57;48.17
34237;BME280;20501;45.956;13.632;2023-03-19T08:32:17;101076.94;;;11.19;50.89
34237;BME280;20501;45.956;13.632;2023-03-19T08:34:43;101070.72;;;11.49;48.93
34237;BME280;20501;45.956;13.632;2023-03-19T08:37:08;101069.16;;;11.46;49.24
34237;BME280;20501;45.956;13.632;2023-03-19T08:39:34;101069.22;;;11.35;49.31
34237;BME280;20501;45.956;13.632;2023-03-19T08:41:59;101070.56;;;10.98;51.30
34237;BME280;20501;45.956;13.632;2023-03-19T08:44:25;101070.22;;;11.65;50.96
34237;BME280;20501;45.956;13.632;2023-03-19T08:46:50;101068.31;;;11.87;51.15
34237;BME280;20501;45.956;13.632;2023-03-19T08:49:16;101068.66;;;12.64;49.14
34237;BME280;20501;45.956;13.632;2023-03-19T08:51:41;101066.38;;;12.89;48.62
34237;BME280;20501;45.956;13.632;2023-03-19T08:54:06;101070.88;;;12.10;47.87
34237;BME280;20501;45.956;13.632;2023-03-19T08:56:33;101062.44;;;11.72;49.11
34237;BME280;20501;45.956;13.632;2023-03-19T08:58:58;101071.31;;;12.25;50.23
34237;BME280;20501;45.956;13.632;2023-03-19T09:01:24;101069.25;;;11.45;50.10
34237;BME280;20501;45.956;13.632;2023-03-19T09:03:49;101069.59;;;11.52;50.21
34237;BME280;20501;45.956;13.632;2023-03-19T09:06:15;101082.19;;;12.34;50.22
34237;BME280;20501;45.956;13.632;2023-03-19T09:08:40;101081.38;;;12.03;47.77
34237;BME280;20501;45.956;13.632;2023-03-19T09:11:06;101083.72;;;12.27;50.36
34237;BME280;20501;45.956;13.632;2023-03-19T09:13:32;101076.34;;;12.49;47.32
34237;BME280;20501;45.956;13.632;2023-03-19T09:15:58;101080.50;;;12.53;44.88
34237;BME280;20501;45.956;13.632;2023-03-19T09:18:23;101086.91;;;12.52;43.04
34237;BME280;20501;45.956;13.632;2023-03-19T09:20:50;101096.91;;;12.61;46.35
34237;BME280;20501;45.956;13.632;2023-03-19T09:23:16;101096.88;;;12.42;47.56
34237;BME280;20501;45.956;13.632;2023-03-19T09:25:42;101089.47;;;12.44;45.90
34237;BME280;20501;45.956;13.632;2023-03-19T09:28:07;101089.78;;;12.70;48.74
34237;BME280;20501;45.956;13.632;2023-03-19T09:30:33;101093.34;;;13.00;47.76
34237;BME280;20501;45.956;13.632;2023-03-19T09:32:58;101088.91;;;12.69;43.79
34237;BME280;20501;45.956;13.632;2023-03-19T09:35:24;101084.81;;;12.95;46.21
34237;BME280;20501;45.956;13.632;2023-03-19T09:37:56;101090.78;;;12.89;44.00
34237;BME280;20501;45.956;13.632;2023-03-19T09:40:28;101093.66;;;13.07;43.10
34237;BME280;20501;45.956;13.632;2023-03-19T09:45:45;101083.94;;;13.04;41.14
34237;BME280;20501;45.956;13.632;2023-03-19T09:48:19;101078.31;;;13.35;40.92
34237;BME280;20501;45.956;13.632;2023-03-19T09:50:53;101069.06;;;13.48;42.53
34237;BME280;20501;45.956;13.632;2023-03-19T09:56:12;101062.06;;;13.25;41.92
34237;BME280;20501;45.956;13.632;2023-03-19T09:58:39;101059.56;;;13.61;41.85
34237;BME280;20501;45.956;13.632;2023-03-19T10:01:05;101058.69;;;13.61;41.69
34237;BME280;20501;45.956;13.632;2023-03-19T10:06:33;101057.25;;;12.99;38.42
34237;BME280;20501;45.956;13.632;2023-03-19T10:14:50;101061.34;;;13.33;39.19
34237;BME280;20501;45.956;13.632;2023-03-19T10:17:24;101062.31;;;13.52;39.80
34237;BME280;20501;45.956;13.632;2023-03-19T10:20:03;101069.91;;;13.28;39.78
34237;BME280;20501;45.956;13.632;2023-03-19T10:22:44;101068.38;;;12.96;39.65
34237;BME280;20501;45.956;13.632;2023-03-19T10:25:17;101068.78;;;13.41;39.37
34237;BME280;20501;45.956;13.632;2023-03-19T10:27:45;101073.88;;;13.54;39.98
34237;BME280;20501;45.956;13.632;2023-03-19T10:30:13;101066.16;;;13.59;42.14
34237;BME280;20501;45.956;13.632;2023-03-19T10:32:45;101070.59;;;13.60;39.79
34237;BME280;20501;45.956;13.632;2023-03-19T10:35:22;101069.56;;;13.61;39.61
34237;BME280;20501;45.956;13.632;2023-03-19T10:37:48;101068.00;;;13.58;40.95
34237;BME280;20501;45.956;13.632;2023-03-19T10:40:47;101068.28;;;13.65;41.02
34237;BME280;20501;45.956;13.632;2023-03-19T10:43:21;101067.72;;;13.52;39.06
34237;BME280;20501;45.956;13.632;2023-03-19T10:45:49;101064.47;;;13.48;39.56
34237;BME280;20501;45.956;13.632;2023-03-19T10:48:16;101071.00;;;13.55;39.49
34237;BME280;20501;45.956;13.632;2023-03-19T10:55:44;101069.75;;;13.50;39.36
34237;BME280;20501;45.956;13.632;2023-03-19T10:58:19;101070.09;;;13.74;39.98
34237;BME280;20501;45.956;13.632;2023-03-19T11:00:46;101066.16;;;13.97;39.36
34237;BME280;20501;45.956;13.632;2023-03-19T11:03:29;101070.81;;;14.04;38.68
34237;BME280;20501;45.956;13.632;2023-03-19T11:08:39;101060.13;;;13.93;41.22
34237;BME280;20501;45.956;13.632;2023-03-19T11:11:04;101060.09;;;14.03;40.00
34237;BME280;20501;45.956;13.632;2023-03-19T11:13:33;101058.38;;;14.02;41.88
34237;BME280;20501;45.956;13.632;2023-03-19T11:16:00;101048.78;;;13.42;40.52
34237;BME280;20501;45.956;13.632;2023-03-19T11:18:36;101053.16;;;13.53;41.82
34237;BME280;20501;45.956;13.632;2023-03-19T11:21:18;101055.06;;;13.42;41.36
34237;BME280;20501;45.956;13.632;2023-03-19T11:23:51;101052.16;;;13.54;41.69
34237;BME280;20501;45.956;13.632;2023-03-19T11:26:20;101053.47;;;13.50;43.07
34237;BME280;20501;45.956;13.632;2023-03-19T11:28:53;101049.88;;;13.59;43.46
34237;BME280;20501;45.956;13.632;2023-03-19T11:31:25;101047.47;;;13.46;41.93
34237;BME280;20501;45.956;13.632;2023-03-19T11:39:25;101048.63;;;13.43;39.81
34237;BME280;20501;45.956;13.632;2023-03-19T11:48:13;101040.16;;;13.56;39.49
34237;BME280;20501;45.956;13.632;2023-03-19T11:53:24;101037.47;;;13.84;38.47
34237;BME280;20501;45.956;13.632;2023-03-19T11:56:20;101033.00;;;13.55;39.55
34237;BME280;20501;45.956;13.632;2023-03-19T12:04:14;101020.38;;;13.74;40.51
34237;BME280;20501;45.956;13.632;2023-03-19T12:06:53;101016.50;;;13.76;39.93
34237;BME280;20501;45.956;13.632;2023-03-19T12:09:28;101019.16;;;13.86;40.46
34237;BME280;20501;45.956;13.632;2023-03-19T12:12:29;101026.88;;;13.91;41.21
34237;BME280;20501;45.956;13.632;2023-03-19T12:15:44;101009.16;;;13.87;41.90
34237;BME280;20501;45.956;13.632;2023-03-19T12:20:34;101014.69;;;13.67;41.26
34237;BME280;20501;45.956;13.632;2023-03-19T12:26:08;101006.59;;;13.85;42.05
34237;BME280;20501;45.956;13.632;2023-03-19T12:29:00;100994.22;;;13.73;40.70
34237;BME280;20501;45.956;13.632;2023-03-19T12:36:45;100989.19;;;13.78;40.74
34237;BME280;20501;45.956;13.632;2023-03-19T12:39:23;100987.81;;;13.64;40.85
34237;BME280;20501;45.956;13.632;2023-03-19T12:41:50;100991.06;;;13.50;40.52
34237;BME280;20501;45.956;13.632;2023-03-19T12:44:26;100985.63;;;13.77;40.60
34237;BME280;20501;45.956;13.632;2023-03-19T12:47:08;100977.84;;;13.83;40.84
34237;BME280;20501;45.956;13.632;2023-03-19T12:50:21;100982.44;;;13.82;40.89
34237;BME280;20501;45.956;13.632;2023-03-19T12:52:47;100985.28;;;13.62;40.12
34237;BME280;20501;45.956;13.632;2023-03-19T12:55:34;100985.78;;;13.76;40.38
34237;BME280;20501;45.956;13.632;2023-03-19T13:01:11;100983.88;;;13.86;40.98
34237;BME280;20501;45.956;13.632;2023-03-19T13:06:27;100979.78;;;13.72;43.34
34237;BME280;20501;45.956;13.632;2023-03-19T13:11:47;100973.22;;;13.93;43.24
34237;BME280;20501;45.956;13.632;2023-03-19T13:14:16;100968.03;;;13.82;40.64
34237;BME280;20501;45.956;13.632;2023-03-19T13:17:02;100968.41;;;13.87;42.03
34237;BME280;20501;45.956;13.632;2023-03-19T13:19:46;100962.06;;;13.96;43.16
34237;BME280;20501;45.956;13.632;2023-03-19T13:22:24;100960.34;;;13.95;40.48
34237;BME280;20501;45.956;13.632;2023-03-19T13:24:53;100952.63;;;14.00;43.48
34237;BME280;20501;45.956;13.632;2023-03-19T13:27:29;100963.16;;;13.85;40.29
34237;BME280;20501;45.956;13.632;2023-03-19T13:32:35;100958.97;;;13.91;43.81
34237;BME280;20501;45.956;13.632;2023-03-19T13:37:42;100958.81;;;13.92;40.65
34237;BME280;20501;45.956;13.632;2023-03-19T13:40:48;100956.16;;;14.01;42.08
34237;BME280;20501;45.956;13.632;2023-03-19T13:54:30;100950.06;;;13.71;41.20
34237;BME280;20501;45.956;13.632;2023-03-19T13:57:01;100947.44;;;13.79;40.60
34237;BME280;20501;45.956;13.632;2023-03-19T13:59:32;100946.41;;;13.90;42.36
34237;BME280;20501;45.956;13.632;2023-03-19T14:02:00;100948.00;;;13.83;42.15
34237;BME280;20501;45.956;13.632;2023-03-19T14:04:33;100947.31;;;13.81;41.68
34237;BME280;20501;45.956;13.632;2023-03-19T14:07:18;100945.97;;;13.85;41.82
34237;BME280;20501;45.956;13.632;2023-03-19T14:12:36;100942.25;;;13.86;43.32